René Lehmann

Chefscout - SC Freiburg
21 Nov 2027
Sonntag
Verarbeitung

Persönlichkeit

Anpassungsfähigkeit (14) Ehrgeiz (13) Kontroverse (5) Loyalität (11) Druck (8) Professionalität (14) Fairness (1) Temperament (11)

Profil

Trainerstil Demokratisch
Lizenz Kontinentale A
Entschlossenheit 6
Menschenführung 10
Motivation 13
Disziplin 14
Arbeitszufriedenheit
100%
Ermüdung
0%
Rolle Chefscout
Gehalt 37.3K p/W
Vertrag 14.03.2030

Leistung

Verhalten Gut
Trainingseffektivität
54%
Spielerentwicklung
45%
Verletzungsprävention
70%
Taktische Umsetzung
25%

Aktuell beobachtet

100
Spieler Verein Status Fähigkeit Vertrauen Beobachtet Zuletzt beobachtet Letzte Stimme
Dayann Methalie Sunderland Aktiv 139 / 137 40% 2 29.08.2027 -
Finn Jeltsch VfB Stuttgart Aktiv 147 / 138 40% 1 29.08.2027 -
Nazareno Roselli Defensa y Justicia Aktiv 118 / 120 40% 1 28.08.2027 -
Caleb Yirenkyi Coventry City Aktiv 139 / 148 40% 1 28.08.2027 -
Marvin Akahomen Basel Aktiv 99 / 110 40% 1 26.08.2027 -
Felipe Faúndez O'Higgins Aktiv 102 / 100 40% 1 26.08.2027 -
Yaroslav Matyukhin Alashkert Aktiv 88 / 99 40% 3 24.08.2027 -
Mbekezeli Mbokazi Chicago Fire Aktiv 124 / 145 40% 1 24.08.2027 -
Jobe Bellingham Eintracht Frankfurt Aktiv 135 / 137 40% 1 23.08.2027 -
Agustín Obregón River Plate Aktiv 109 / 120 40% 1 23.08.2027 -
Ibrahim Coulibaly Clermont Foot Aktiv 117 / 119 40% 1 22.08.2027 -
Gustavo Albarracín Alavés Aktiv 110 / 121 40% 1 22.08.2027 -
Alexis Fretes Libertad Aktiv 104 / 106 40% 2 21.08.2027 -
Ronan Kpakio West Bromwich Albion Aktiv 111 / 134 40% 1 21.08.2027 -
Juan Manuel Villalba Estudiantes Aktiv 115 / 132 40% 2 19.08.2027 -
Jonathan Bland Barnsley Aktiv 111 / 113 40% 1 19.08.2027 -
Souza Tottenham Aktiv 123 / 139 40% 2 18.08.2027 -
Hugo Rojas Instituto Aktiv 107 / 110 40% 1 18.08.2027 -
Juma Bah Manchester City Aktiv 132 / 137 40% 1 17.08.2027 -
Maxim Dal Mainz 05 Aktiv 103 / 102 40% 1 17.08.2027 -
Bahia Santos Aktiv 117 / 110 40% 1 12.08.2027 -
Ollie Scarles West Ham United Aktiv 135 / 135 40% 5 11.08.2027 -
Fabian Rossdorfer SV Ried Aktiv 100 / 106 40% 2 11.08.2027 -
Sanel Šaljić Austria Wien Aktiv 110 / 117 40% 2 11.08.2027 -
George Abbott Tottenham Aktiv 115 / 121 40% 1 11.08.2027 -
Izan Merino Málaga Aktiv 135 / 123 40% 3 07.08.2027 -
Eliás Montiel Pachuca Aktiv 117 / 145 40% 10 05.08.2027 -
Valentin Atangana Al-Ahli Aktiv 143 / 148 40% 6 04.08.2027 -
Jayden Spier Willem II Aktiv 106 / 107 40% 2 04.08.2027 -
Andrés Cuenca Como Aktiv 117 / 111 40% 1 03.08.2027 -
Rhys Walters Port Vale Aktiv 103 / 110 40% 1 03.08.2027 -
Diogo Guzmán Platense Aktiv 102 / 120 40% 1 02.08.2027 -
Alex Tóth Bournemouth Aktiv 135 / 126 40% 4 30.07.2027 -
Andrik Markgraf Union Berlin Aktiv 106 / 102 40% 2 30.07.2027 -
Mikkel Hope Sarpsborg 08 Aktiv 102 / 105 40% 1 29.07.2027 -
Kian Best Chelsea Aktiv 99 / 102 40% 1 29.07.2027 -
Martim Cunha Porto Aktiv 100 / 117 40% 3 27.07.2027 -
Leon Grgić Red Bull Salzburg Aktiv 129 / 137 40% 2 26.07.2027 -
Eduardo Fernandes Benfica Aktiv 107 / 110 40% 1 26.07.2027 -
Ignacio Isla Unión de Santa Fe Aktiv 109 / 110 40% 1 24.07.2027 -
Augusto Bando Ascoli Aktiv 94 / 106 40% 1 24.07.2027 -
Saïmon Bouabré Al-Hilal Aktiv 127 / 136 40% 1 20.07.2027 -
Leart Kabashi Grasshopper Aktiv 112 / 117 40% 1 20.07.2027 -
Jacob Peter Hödl Sturm Graz Aktiv 121 / 119 40% 1 19.07.2027 -
Alejandro Leiva Almería Aktiv 104 / 102 40% 4 17.07.2027 -
Petik Manukyan Urartu Aktiv 110 / 117 40% 3 15.07.2027 -
Emmanuel Dzigbah Cukaricki Aktiv 89 / 95 40% 3 14.07.2027 -
Josh Stephenson Brentford Aktiv 112 / 123 40% 2 12.07.2027 -
Vasyl Bundash Metalurh Zaporizhzhia Aktiv 108 / 91 40% 2 11.07.2027 -
Augusto Bando Ascoli Verloren 107 / 103 40% 2 10.07.2027 -
Matías Argüello Olimpia Aktiv 109 / 96 40% 3 04.07.2027 -
Duvan Giraldo Cortulua Aktiv 122 / 144 40% 2 03.07.2027 -
Kaick FC Dallas Aktiv 116 / 123 40% 1 01.07.2027 -
Tidiam Gomis RB Leipzig Aktiv 124 / 122 40% 1 01.07.2027 -
Mathys Angély VfL Wolfsburg Aktiv 108 / 121 40% 1 01.07.2027 -
Ishé Samuels-Smith Chelsea Aktiv 127 / 130 40% 1 30.06.2027 -
Enzo Tacafred AS Nancy Verloren 107 / 96 40% 3 28.06.2027 -
Malick Yalcouyé Brighton Aktiv 118 / 132 40% 1 24.06.2027 -
Facundo Ortíz Independiente Rivadavia Aktiv 92 / 115 40% 1 22.06.2027 -
Julián Bazán New York Red Bulls Abgelehnt 113 / 135 40% 4 17.06.2027 Ablehnen
Louis Page West Ham United Aktiv 122 / 125 40% 4 13.06.2027 -
Luca Raffin Rosario Central Aktiv 109 / 117 40% 1 09.06.2027 -
Aidan Borland Aston Villa Aktiv 101 / 105 40% 1 09.06.2027 -
Marius Wolf FC Augsburg Aktiv 125 / 142 58% 1 07.06.2027 Befürworten
Valentino Massi Sarmiento Aktiv 93 / 108 40% 1 03.06.2027 -
Takashi Usami FC Augsburg Aktiv 133 / 118 58% 1 01.06.2027 Befürworten
Nazareno Kihm Ferro Carril Oeste Aktiv 114 / 123 40% 1 31.01.2027 -
Chris Rigg Bournemouth Aktiv 121 / 135 40% 1 31.01.2027 -
Héctor Fort Real Sociedad Aktiv 123 / 145 40% 2 30.01.2027 Mehr Infos nötig
Joaquin Seys Club Brugge Aktiv 137 / 135 40% 3 29.01.2027 -
Bobby Clark Derby County Aktiv 112 / 137 40% 1 28.01.2027 -
Olívio Tomé Benfica Verloren 103 / 101 40% 1 28.01.2027 -
Keita Kosugi Eintracht Frankfurt Aktiv 111 / 134 40% 2 25.01.2027 -
Breno Bidon Corinthians Aktiv 123 / 142 40% 2 24.01.2027 -
Yussif Saidu Zaragoza Aktiv 122 / 124 40% 1 23.01.2027 -
Mert Kömür Bayer Leverkusen Aktiv 123 / 135 40% 2 20.01.2027 -
Kyriani Sabbe Club Brugge Aktiv 124 / 116 40% 1 20.01.2027 -
Momodou Sonko KAA Gent Aktiv 121 / 121 40% 1 20.01.2027 -
Juan Pablo De la Reta Maipú Aktiv 120 / 112 40% 2 16.01.2027 -
Tristan Degreef Anderlecht Aktiv 120 / 127 40% 1 11.01.2027 -
Lucas Agazzi Athletic Bilbao Aktiv 119 / 127 40% 3 08.01.2027 -
Carney Chukwuemeka Borussia Dortmund Aktiv 144 / 145 58% 1 06.01.2027 Befürworten
Lautaro Vargas Unión de Santa Fe Aktiv 128 / 119 40% 1 05.01.2027 -
Santiago Sosa Yung Valencia Aktiv 124 / 122 40% 2 01.01.2027 -
Saël Kumbedi VfL Wolfsburg Aktiv 130 / 145 40% 1 01.01.2027 Mehr Infos nötig
Marvin Kaleta Rotherham United Aktiv 109 / 109 40% 1 31.08.2026 Mehr Infos nötig
Obed Vargas Atlético Madrid Aktiv 122 / 117 40% 1 31.08.2026 Mehr Infos nötig
Louis Oppie St. Pauli Aktiv 125 / 135 55% 1 24.08.2026 -
Elías Báez Atlanta United FC Aktiv 123 / 128 40% 1 24.08.2026 -
Veljko Milosavljević Bournemouth Aktiv 136 / 136 40% 1 19.08.2026 -
Santiago Fernández Talleres Aktiv 126 / 124 40% 1 16.08.2026 -
Yusi Alavés Aktiv 124 / 131 40% 1 15.08.2026 -
Luka Mikulić Grasshopper Aktiv 102 / 121 40% 1 15.08.2026 -
Joane Gadou Borussia Dortmund Aktiv 117 / 132 40% 1 13.08.2026 -
Frankie Westfield Philadelphia Union Aktiv 107 / 122 40% 1 12.08.2026 -
Jens Hjertø-Dahl Hull City Aktiv 105 / 136 40% 1 11.08.2026 -
Raphael Posch Mattersburg Aktiv 105 / 123 40% 1 11.08.2026 -
Marcel Sabitzer Borussia Dortmund Aktiv 145 / 139 55% 1 03.08.2026 -
Mats Rots TSG Hoffenheim Aktiv 125 / 133 40% 1 03.08.2026 -
Oli McBurnie Hull City Aktiv 132 / 124 40% 1 01.08.2026 -